sensor_id;sensor_type;location;lat;lon;timestamp;temperature;humidity
28530;DHT22;15737;49.760;6.632;2023-12-22T00:01:20;8.20;99.90
28530;DHT22;15737;49.760;6.632;2023-12-22T00:03:45;8.20;99.90
28530;DHT22;15737;49.760;6.632;2023-12-22T00:06:11;8.20;99.90
28530;DHT22;15737;49.760;6.632;2023-12-22T00:08:37;8.30;99.90
28530;DHT22;15737;49.760;6.632;2023-12-22T00:11:03;8.40;99.90
28530;DHT22;15737;49.760;6.632;2023-12-22T00:13:29;8.30;99.90
28530;DHT22;15737;49.760;6.632;2023-12-22T00:15:54;8.20;99.90
28530;DHT22;15737;49.760;6.632;2023-12-22T00:18:20;8.10;99.90
28530;DHT22;15737;49.760;6.632;2023-12-22T00:20:46;8.10;99.90
28530;DHT22;15737;49.760;6.632;2023-12-22T00:23:11;8.10;99.90
28530;DHT22;15737;49.760;6.632;2023-12-22T00:25:37;8.00;99.90
28530;DHT22;15737;49.760;6.632;2023-12-22T00:28:03;8.00;99.90
28530;DHT22;15737;49.760;6.632;2023-12-22T00:30:28;8.10;99.90
28530;DHT22;15737;49.760;6.632;2023-12-22T00:32:54;8.20;99.90
28530;DHT22;15737;49.760;6.632;2023-12-22T00:35:19;8.10;99.90
28530;DHT22;15737;49.760;6.632;2023-12-22T00:37:45;8.00;99.90
28530;DHT22;15737;49.760;6.632;2023-12-22T00:40:10;8.00;99.90
28530;DHT22;15737;49.760;6.632;2023-12-22T00:42:36;7.90;99.90
28530;DHT22;15737;49.760;6.632;2023-12-22T00:45:02;7.80;99.90
28530;DHT22;15737;49.760;6.632;2023-12-22T00:47:28;7.80;99.90
28530;DHT22;15737;49.760;6.632;2023-12-22T00:49:53;7.70;99.90
28530;DHT22;15737;49.760;6.632;2023-12-22T00:52:19;7.80;99.90
28530;DHT22;15737;49.760;6.632;2023-12-22T00:54:44;7.90;99.90
28530;DHT22;15737;49.760;6.632;2023-12-22T00:57:10;8.10;99.90
28530;DHT22;15737;49.760;6.632;2023-12-22T00:59:36;8.10;99.90
28530;DHT22;15737;49.760;6.632;2023-12-22T01:02:02;8.20;99.90
28530;DHT22;15737;49.760;6.632;2023-12-22T01:04:28;8.30;99.90
28530;DHT22;15737;49.760;6.632;2023-12-22T01:06:53;8.30;99.90
28530;DHT22;15737;49.760;6.632;2023-12-22T01:09:19;8.40;99.90
28530;DHT22;15737;49.760;6.632;2023-12-22T01:11:45;8.50;99.90
28530;DHT22;15737;49.760;6.632;2023-12-22T01:14:11;8.50;99.90
28530;DHT22;15737;49.760;6.632;2023-12-22T01:16:38;8.50;99.90
28530;DHT22;15737;49.760;6.632;2023-12-22T01:19:04;8.60;99.90
28530;DHT22;15737;49.760;6.632;2023-12-22T01:21:29;8.70;99.90
28530;DHT22;15737;49.760;6.632;2023-12-22T01:23:55;8.70;99.90
28530;DHT22;15737;49.760;6.632;2023-12-22T01:26:20;8.80;99.90
28530;DHT22;15737;49.760;6.632;2023-12-22T01:28:46;8.80;99.90
28530;DHT22;15737;49.760;6.632;2023-12-22T01:31:11;9.00;99.90
28530;DHT22;15737;49.760;6.632;2023-12-22T01:33:37;9.00;99.90
28530;DHT22;15737;49.760;6.632;2023-12-22T01:36:02;9.00;99.90
28530;DHT22;15737;49.760;6.632;2023-12-22T01:38:28;8.90;99.90
28530;DHT22;15737;49.760;6.632;2023-12-22T01:40:53;8.60;99.90
28530;DHT22;15737;49.760;6.632;2023-12-22T01:43:19;8.50;99.90
28530;DHT22;15737;49.760;6.632;2023-12-22T01:45:48;8.50;99.90
28530;DHT22;15737;49.760;6.632;2023-12-22T01:48:14;8.30;99.90
28530;DHT22;15737;49.760;6.632;2023-12-22T01:50:40;8.30;99.90
28530;DHT22;15737;49.760;6.632;2023-12-22T01:53:06;8.30;99.90
28530;DHT22;15737;49.760;6.632;2023-12-22T01:55:32;8.30;99.90
28530;DHT22;15737;49.760;6.632;2023-12-22T01:57:58;8.20;99.90
28530;DHT22;15737;49.760;6.632;2023-12-22T02:00:24;8.20;99.90
28530;DHT22;15737;49.760;6.632;2023-12-22T02:02:50;8.20;99.90
28530;DHT22;15737;49.760;6.632;2023-12-22T02:05:16;8.10;99.90
28530;DHT22;15737;49.760;6.632;2023-12-22T02:07:42;8.10;99.90
28530;DHT22;15737;49.760;6.632;2023-12-22T02:10:08;8.00;99.90
28530;DHT22;15737;49.760;6.632;2023-12-22T02:12:37;7.90;99.90
28530;DHT22;15737;49.760;6.632;2023-12-22T02:15:02;7.80;99.90
28530;DHT22;15737;49.760;6.632;2023-12-22T02:17:49;7.70;99.90
28530;DHT22;15737;49.760;6.632;2023-12-22T02:20:17;7.60;99.90
28530;DHT22;15737;49.760;6.632;2023-12-22T02:22:42;7.50;99.90
28530;DHT22;15737;49.760;6.632;2023-12-22T02:25:08;7.30;99.90
28530;DHT22;15737;49.760;6.632;2023-12-22T02:27:42;7.20;99.90
28530;DHT22;15737;49.760;6.632;2023-12-22T02:30:14;7.10;99.90
28530;DHT22;15737;49.760;6.632;2023-12-22T02:32:43;7.10;99.90
28530;DHT22;15737;49.760;6.632;2023-12-22T02:35:11;7.10;99.90
28530;DHT22;15737;49.760;6.632;2023-12-22T02:37:39;7.10;99.90
28530;DHT22;15737;49.760;6.632;2023-12-22T02:40:05;7.10;99.90
28530;DHT22;15737;49.760;6.632;2023-12-22T02:42:33;7.00;99.90
28530;DHT22;15737;49.760;6.632;2023-12-22T02:44:59;7.00;99.90
28530;DHT22;15737;49.760;6.632;2023-12-22T02:47:26;7.00;99.90
28530;DHT22;15737;49.760;6.632;2023-12-22T02:49:53;7.10;99.90
28530;DHT22;15737;49.760;6.632;2023-12-22T02:52:19;7.10;99.90
28530;DHT22;15737;49.760;6.632;2023-12-22T02:54:44;7.10;99.90
28530;DHT22;15737;49.760;6.632;2023-12-22T02:57:12;7.10;99.90
28530;DHT22;15737;49.760;6.632;2023-12-22T02:59:38;7.20;99.90
28530;DHT22;15737;49.760;6.632;2023-12-22T03:02:03;7.20;99.90
28530;DHT22;15737;49.760;6.632;2023-12-22T03:04:29;7.20;99.90
28530;DHT22;15737;49.760;6.632;2023-12-22T03:06:54;7.20;99.90
28530;DHT22;15737;49.760;6.632;2023-12-22T03:09:20;7.20;99.90
28530;DHT22;15737;49.760;6.632;2023-12-22T03:11:47;7.20;99.90
28530;DHT22;15737;49.760;6.632;2023-12-22T03:14:15;7.20;99.90
28530;DHT22;15737;49.760;6.632;2023-12-22T03:16:41;7.20;99.90
28530;DHT22;15737;49.760;6.632;2023-12-22T03:19:07;7.20;99.90
28530;DHT22;15737;49.760;6.632;2023-12-22T03:21:32;7.20;99.90
28530;DHT22;15737;49.760;6.632;2023-12-22T03:23:58;7.20;99.90
28530;DHT22;15737;49.760;6.632;2023-12-22T03:26:26;7.20;99.90
28530;DHT22;15737;49.760;6.632;2023-12-22T03:28:51;7.10;99.90
28530;DHT22;15737;49.760;6.632;2023-12-22T03:31:17;7.10;99.90
28530;DHT22;15737;49.760;6.632;2023-12-22T03:33:42;7.20;99.90
28530;DHT22;15737;49.760;6.632;2023-12-22T03:36:08;7.20;99.90
28530;DHT22;15737;49.760;6.632;2023-12-22T03:38:33;7.30;99.90
28530;DHT22;15737;49.760;6.632;2023-12-22T03:40:59;7.40;99.90
28530;DHT22;15737;49.760;6.632;2023-12-22T03:43:27;7.50;99.90
28530;DHT22;15737;49.760;6.632;2023-12-22T03:45:55;7.50;99.90
28530;DHT22;15737;49.760;6.632;2023-12-22T03:48:20;7.50;99.90
28530;DHT22;15737;49.760;6.632;2023-12-22T03:50:46;7.50;99.90
28530;DHT22;15737;49.760;6.632;2023-12-22T03:53:11;7.60;99.90
28530;DHT22;15737;49.760;6.632;2023-12-22T03:55:37;7.60;99.90
28530;DHT22;15737;49.760;6.632;2023-12-22T03:58:02;7.70;99.90
28530;DHT22;15737;49.760;6.632;2023-12-22T04:00:30;7.80;99.90
28530;DHT22;15737;49.760;6.632;2023-12-22T04:02:55;7.90;99.90
28530;DHT22;15737;49.760;6.632;2023-12-22T04:05:21;8.00;99.90
28530;DHT22;15737;49.760;6.632;2023-12-22T04:07:46;8.10;99.90
28530;DHT22;15737;49.760;6.632;2023-12-22T04:10:12;8.10;99.90
28530;DHT22;15737;49.760;6.632;2023-12-22T04:12:37;8.20;99.90
28530;DHT22;15737;49.760;6.632;2023-12-22T04:15:03;8.20;99.90
28530;DHT22;15737;49.760;6.632;2023-12-22T04:17:29;8.30;99.90
28530;DHT22;15737;49.760;6.632;2023-12-22T04:19:55;8.30;99.90
28530;DHT22;15737;49.760;6.632;2023-12-22T04:22:20;8.40;99.90
28530;DHT22;15737;49.760;6.632;2023-12-22T04:24:45;8.30;99.90
28530;DHT22;15737;49.760;6.632;2023-12-22T04:27:11;8.30;99.90
28530;DHT22;15737;49.760;6.632;2023-12-22T04:29:37;8.40;99.90
28530;DHT22;15737;49.760;6.632;2023-12-22T04:32:03;8.40;99.90
28530;DHT22;15737;49.760;6.632;2023-12-22T04:34:29;8.50;99.90
28530;DHT22;15737;49.760;6.632;2023-12-22T04:36:54;8.50;99.90
28530;DHT22;15737;49.760;6.632;2023-12-22T04:39:20;8.60;99.90
28530;DHT22;15737;49.760;6.632;2023-12-22T04:41:45;8.50;99.90
28530;DHT22;15737;49.760;6.632;2023-12-22T04:44:11;8.50;99.90
28530;DHT22;15737;49.760;6.632;2023-12-22T04:46:36;8.50;99.90
28530;DHT22;15737;49.760;6.632;2023-12-22T04:49:02;8.50;99.90
28530;DHT22;15737;49.760;6.632;2023-12-22T04:51:27;8.60;99.90
28530;DHT22;15737;49.760;6.632;2023-12-22T04:53:53;8.50;99.90
28530;DHT22;15737;49.760;6.632;2023-12-22T04:56:18;8.40;99.90
28530;DHT22;15737;49.760;6.632;2023-12-22T04:58:44;8.40;99.90
28530;DHT22;15737;49.760;6.632;2023-12-22T05:01:09;8.30;99.90
28530;DHT22;15737;49.760;6.632;2023-12-22T05:03:35;8.30;99.90
28530;DHT22;15737;49.760;6.632;2023-12-22T05:06:00;8.40;99.90
28530;DHT22;15737;49.760;6.632;2023-12-22T05:08:26;8.30;99.90
28530;DHT22;15737;49.760;6.632;2023-12-22T05:10:51;8.30;99.90
28530;DHT22;15737;49.760;6.632;2023-12-22T05:13:17;8.20;99.90
28530;DHT22;15737;49.760;6.632;2023-12-22T05:15:42;8.20;99.90
28530;DHT22;15737;49.760;6.632;2023-12-22T05:18:08;8.10;99.90
28530;DHT22;15737;49.760;6.632;2023-12-22T05:20:33;8.10;99.90
28530;DHT22;15737;49.760;6.632;2023-12-22T05:22:59;8.00;99.90
28530;DHT22;15737;49.760;6.632;2023-12-22T05:25:25;7.90;99.90
28530;DHT22;15737;49.760;6.632;2023-12-22T05:27:50;7.90;99.90
28530;DHT22;15737;49.760;6.632;2023-12-22T05:30:17;7.80;99.90
28530;DHT22;15737;49.760;6.632;2023-12-22T05:32:43;7.70;99.90
28530;DHT22;15737;49.760;6.632;2023-12-22T05:35:09;7.60;99.90
28530;DHT22;15737;49.760;6.632;2023-12-22T05:37:35;7.60;99.90
28530;DHT22;15737;49.760;6.632;2023-12-22T05:40:01;7.60;99.90
28530;DHT22;15737;49.760;6.632;2023-12-22T05:42:27;7.60;99.90
28530;DHT22;15737;49.760;6.632;2023-12-22T05:44:52;7.60;99.90
28530;DHT22;15737;49.760;6.632;2023-12-22T05:47:18;7.60;99.90
28530;DHT22;15737;49.760;6.632;2023-12-22T05:49:44;7.60;99.90
28530;DHT22;15737;49.760;6.632;2023-12-22T05:52:09;7.70;99.90
28530;DHT22;15737;49.760;6.632;2023-12-22T05:54:35;7.60;99.90
28530;DHT22;15737;49.760;6.632;2023-12-22T05:57:01;7.50;99.90
28530;DHT22;15737;49.760;6.632;2023-12-22T05:59:30;7.50;99.90
28530;DHT22;15737;49.760;6.632;2023-12-22T06:01:57;7.50;99.90
28530;DHT22;15737;49.760;6.632;2023-12-22T06:04:24;7.50;99.90
28530;DHT22;15737;49.760;6.632;2023-12-22T06:06:50;7.40;99.90
28530;DHT22;15737;49.760;6.632;2023-12-22T06:09:15;7.30;99.90
28530;DHT22;15737;49.760;6.632;2023-12-22T06:11:42;7.20;99.90
28530;DHT22;15737;49.760;6.632;2023-12-22T06:14:08;7.10;99.90
28530;DHT22;15737;49.760;6.632;2023-12-22T06:16:33;6.90;99.90
28530;DHT22;15737;49.760;6.632;2023-12-22T06:18:59;6.90;99.90
28530;DHT22;15737;49.760;6.632;2023-12-22T06:21:24;6.80;99.90
28530;DHT22;15737;49.760;6.632;2023-12-22T06:23:50;6.70;99.90
28530;DHT22;15737;49.760;6.632;2023-12-22T06:26:16;6.70;99.90
28530;DHT22;15737;49.760;6.632;2023-12-22T06:28:41;6.60;99.90
28530;DHT22;15737;49.760;6.632;2023-12-22T06:31:08;6.60;99.90
28530;DHT22;15737;49.760;6.632;2023-12-22T06:33:34;6.60;99.90
28530;DHT22;15737;49.760;6.632;2023-12-22T06:35:59;6.50;99.90
28530;DHT22;15737;49.760;6.632;2023-12-22T06:38:25;6.60;99.90
28530;DHT22;15737;49.760;6.632;2023-12-22T06:40:50;6.60;99.90
28530;DHT22;15737;49.760;6.632;2023-12-22T06:43:16;6.60;99.90
28530;DHT22;15737;49.760;6.632;2023-12-22T06:45:41;6.70;99.90
28530;DHT22;15737;49.760;6.632;2023-12-22T06:48:07;6.70;99.90
28530;DHT22;15737;49.760;6.632;2023-12-22T06:50:34;6.80;99.90
28530;DHT22;15737;49.760;6.632;2023-12-22T06:53:02;6.90;99.90
28530;DHT22;15737;49.760;6.632;2023-12-22T06:55:28;7.00;99.90
28530;DHT22;15737;49.760;6.632;2023-12-22T06:57:54;7.10;99.90
28530;DHT22;15737;49.760;6.632;2023-12-22T07:00:20;7.10;99.90
28530;DHT22;15737;49.760;6.632;2023-12-22T07:02:46;7.20;99.90
28530;DHT22;15737;49.760;6.632;2023-12-22T07:07:46;7.40;99.90
28530;DHT22;15737;49.760;6.632;2023-12-22T07:10:12;7.50;99.90
28530;DHT22;15737;49.760;6.632;2023-12-22T07:12:38;7.60;99.90
28530;DHT22;15737;49.760;6.632;2023-12-22T07:15:05;7.70;99.90
28530;DHT22;15737;49.760;6.632;2023-12-22T07:17:32;7.70;99.90
28530;DHT22;15737;49.760;6.632;2023-12-22T07:19:58;7.80;99.90
28530;DHT22;15737;49.760;6.632;2023-12-22T07:22:24;7.70;99.90
28530;DHT22;15737;49.760;6.632;2023-12-22T07:24:50;7.80;99.90
28530;DHT22;15737;49.760;6.632;2023-12-22T07:27:18;7.90;99.90
28530;DHT22;15737;49.760;6.632;2023-12-22T07:29:43;7.90;99.90
28530;DHT22;15737;49.760;6.632;2023-12-22T07:32:09;7.90;99.90
28530;DHT22;15737;49.760;6.632;2023-12-22T07:34:34;8.00;99.90
28530;DHT22;15737;49.760;6.632;2023-12-22T07:37:00;8.00;99.90
28530;DHT22;15737;49.760;6.632;2023-12-22T07:39:25;8.00;99.90
28530;DHT22;15737;49.760;6.632;2023-12-22T07:41:51;8.00;99.90
28530;DHT22;15737;49.760;6.632;2023-12-22T07:44:16;8.00;99.90
28530;DHT22;15737;49.760;6.632;2023-12-22T07:46:42;8.00;99.90
28530;DHT22;15737;49.760;6.632;2023-12-22T07:49:07;8.10;99.90
28530;DHT22;15737;49.760;6.632;2023-12-22T07:51:33;8.10;99.90
28530;DHT22;15737;49.760;6.632;2023-12-22T07:53:59;8.10;99.90
28530;DHT22;15737;49.760;6.632;2023-12-22T07:56:24;8.10;99.90
28530;DHT22;15737;49.760;6.632;2023-12-22T07:58:50;8.20;99.90
28530;DHT22;15737;49.760;6.632;2023-12-22T08:01:15;8.20;99.90
28530;DHT22;15737;49.760;6.632;2023-12-22T08:03:41;8.10;99.90
28530;DHT22;15737;49.760;6.632;2023-12-22T08:06:06;8.10;99.90
28530;DHT22;15737;49.760;6.632;2023-12-22T08:08:32;8.20;99.90
28530;DHT22;15737;49.760;6.632;2023-12-22T08:10:59;8.20;99.90
28530;DHT22;15737;49.760;6.632;2023-12-22T08:13:24;8.20;99.90
28530;DHT22;15737;49.760;6.632;2023-12-22T08:15:50;8.20;99.90
28530;DHT22;15737;49.760;6.632;2023-12-22T08:18:15;8.20;99.90
28530;DHT22;15737;49.760;6.632;2023-12-22T08:20:41;8.20;99.90
28530;DHT22;15737;49.760;6.632;2023-12-22T08:23:07;8.30;99.90
28530;DHT22;15737;49.760;6.632;2023-12-22T08:25:32;8.30;99.90
28530;DHT22;15737;49.760;6.632;2023-12-22T08:27:58;8.30;99.90
28530;DHT22;15737;49.760;6.632;2023-12-22T08:30:23;8.40;99.90
28530;DHT22;15737;49.760;6.632;2023-12-22T08:32:50;8.40;99.90
28530;DHT22;15737;49.760;6.632;2023-12-22T08:35:16;8.40;99.90
28530;DHT22;15737;49.760;6.632;2023-12-22T08:37:42;8.40;99.90
28530;DHT22;15737;49.760;6.632;2023-12-22T08:40:07;8.40;99.90
28530;DHT22;15737;49.760;6.632;2023-12-22T08:42:33;8.40;99.90
28530;DHT22;15737;49.760;6.632;2023-12-22T08:44:59;8.50;99.90
28530;DHT22;15737;49.760;6.632;2023-12-22T08:47:24;8.50;99.90
28530;DHT22;15737;49.760;6.632;2023-12-22T08:49:50;8.50;99.90
28530;DHT22;15737;49.760;6.632;2023-12-22T08:52:16;8.40;99.90
28530;DHT22;15737;49.760;6.632;2023-12-22T08:54:41;8.40;99.90
28530;DHT22;15737;49.760;6.632;2023-12-22T08:57:07;8.40;99.90
28530;DHT22;15737;49.760;6.632;2023-12-22T08:59:34;8.40;99.90
28530;DHT22;15737;49.760;6.632;2023-12-22T09:01:59;8.40;99.90
28530;DHT22;15737;49.760;6.632;2023-12-22T09:04:25;8.40;99.90
28530;DHT22;15737;49.760;6.632;2023-12-22T09:06:50;8.40;99.90
28530;DHT22;15737;49.760;6.632;2023-12-22T09:09:16;8.40;99.90
28530;DHT22;15737;49.760;6.632;2023-12-22T09:11:42;8.30;99.90
28530;DHT22;15737;49.760;6.632;2023-12-22T09:14:07;8.30;99.90
28530;DHT22;15737;49.760;6.632;2023-12-22T09:16:36;8.30;99.90
28530;DHT22;15737;49.760;6.632;2023-12-22T09:19:03;8.30;99.90
28530;DHT22;15737;49.760;6.632;2023-12-22T09:21:28;8.20;99.90
28530;DHT22;15737;49.760;6.632;2023-12-22T09:23:54;8.20;99.90
28530;DHT22;15737;49.760;6.632;2023-12-22T09:26:20;8.20;99.90
28530;DHT22;15737;49.760;6.632;2023-12-22T09:28:46;8.20;99.90
28530;DHT22;15737;49.760;6.632;2023-12-22T09:31:11;8.30;99.90
28530;DHT22;15737;49.760;6.632;2023-12-22T09:33:41;8.30;99.90
28530;DHT22;15737;49.760;6.632;2023-12-22T09:36:07;8.30;99.90
28530;DHT22;15737;49.760;6.632;2023-12-22T09:38:33;8.40;99.90
28530;DHT22;15737;49.760;6.632;2023-12-22T09:40:59;8.40;99.90
28530;DHT22;15737;49.760;6.632;2023-12-22T09:43:25;8.50;99.90
28530;DHT22;15737;49.760;6.632;2023-12-22T09:45:51;8.70;99.90
28530;DHT22;15737;49.760;6.632;2023-12-22T09:48:18;8.80;99.90
28530;DHT22;15737;49.760;6.632;2023-12-22T09:50:46;8.90;99.90
28530;DHT22;15737;49.760;6.632;2023-12-22T09:53:15;8.90;99.90
28530;DHT22;15737;49.760;6.632;2023-12-22T09:55:45;9.00;99.90
28530;DHT22;15737;49.760;6.632;2023-12-22T09:58:12;9.10;99.90
28530;DHT22;15737;49.760;6.632;2023-12-22T10:00:39;9.10;99.90
28530;DHT22;15737;49.760;6.632;2023-12-22T10:03:10;9.20;99.90
28530;DHT22;15737;49.760;6.632;2023-12-22T10:05:37;9.20;99.90
28530;DHT22;15737;49.760;6.632;2023-12-22T10:08:03;9.20;99.90
28530;DHT22;15737;49.760;6.632;2023-12-22T10:10:30;9.20;99.90
28530;DHT22;15737;49.760;6.632;2023-12-22T10:12:56;9.10;99.90
28530;DHT22;15737;49.760;6.632;2023-12-22T10:15:23;9.10;99.90
28530;DHT22;15737;49.760;6.632;2023-12-22T10:17:50;9.20;99.90
28530;DHT22;15737;49.760;6.632;2023-12-22T10:20:16;9.30;99.90
28530;DHT22;15737;49.760;6.632;2023-12-22T10:22:42;9.30;99.90
28530;DHT22;15737;49.760;6.632;2023-12-22T10:25:08;9.30;99.90
28530;DHT22;15737;49.760;6.632;2023-12-22T10:27:36;9.30;99.90
28530;DHT22;15737;49.760;6.632;2023-12-22T10:30:03;9.30;99.90
28530;DHT22;15737;49.760;6.632;2023-12-22T10:32:29;9.30;99.90
28530;DHT22;15737;49.760;6.632;2023-12-22T10:34:55;9.30;99.90
28530;DHT22;15737;49.760;6.632;2023-12-22T10:37:23;9.20;99.90
28530;DHT22;15737;49.760;6.632;2023-12-22T10:39:54;9.10;99.90
28530;DHT22;15737;49.760;6.632;2023-12-22T10:42:23;9.10;99.90
28530;DHT22;15737;49.760;6.632;2023-12-22T10:44:49;9.10;99.90
28530;DHT22;15737;49.760;6.632;2023-12-22T10:47:15;9.10;99.90
28530;DHT22;15737;49.760;6.632;2023-12-22T10:49:42;9.10;99.90
28530;DHT22;15737;49.760;6.632;2023-12-22T10:52:15;9.10;99.90
28530;DHT22;15737;49.760;6.632;2023-12-22T10:54:41;9.20;99.90
28530;DHT22;15737;49.760;6.632;2023-12-22T10:57:06;9.20;99.90
28530;DHT22;15737;49.760;6.632;2023-12-22T10:59:33;9.10;99.90
28530;DHT22;15737;49.760;6.632;2023-12-22T11:02:02;9.10;99.90
28530;DHT22;15737;49.760;6.632;2023-12-22T11:04:35;9.10;99.90
28530;DHT22;15737;49.760;6.632;2023-12-22T11:07:04;9.10;99.90
28530;DHT22;15737;49.760;6.632;2023-12-22T11:09:31;9.10;99.90
28530;DHT22;15737;49.760;6.632;2023-12-22T11:11:58;9.00;99.90
28530;DHT22;15737;49.760;6.632;2023-12-22T11:14:26;9.00;99.90
28530;DHT22;15737;49.760;6.632;2023-12-22T11:16:53;8.90;99.90
28530;DHT22;15737;49.760;6.632;2023-12-22T11:19:20;8.80;99.90
28530;DHT22;15737;49.760;6.632;2023-12-22T11:21:50;8.70;99.90
28530;DHT22;15737;49.760;6.632;2023-12-22T11:24:16;8.70;99.90
28530;DHT22;15737;49.760;6.632;2023-12-22T11:26:45;8.60;99.90
28530;DHT22;15737;49.760;6.632;2023-12-22T11:29:12;8.60;99.90
28530;DHT22;15737;49.760;6.632;2023-12-22T11:31:39;8.60;99.90
28530;DHT22;15737;49.760;6.632;2023-12-22T11:34:07;8.70;99.90
28530;DHT22;15737;49.760;6.632;2023-12-22T11:36:33;8.70;99.90
28530;DHT22;15737;49.760;6.632;2023-12-22T11:38:59;8.80;99.90
28530;DHT22;15737;49.760;6.632;2023-12-22T11:41:27;8.90;99.90
28530;DHT22;15737;49.760;6.632;2023-12-22T11:43:56;9.00;99.90
28530;DHT22;15737;49.760;6.632;2023-12-22T11:46:23;9.00;99.90
28530;DHT22;15737;49.760;6.632;2023-12-22T11:48:52;9.10;99.90
28530;DHT22;15737;49.760;6.632;2023-12-22T11:51:18;9.10;99.90
28530;DHT22;15737;49.760;6.632;2023-12-22T11:53:44;9.10;99.90
28530;DHT22;15737;49.760;6.632;2023-12-22T11:56:11;9.10;99.90
28530;DHT22;15737;49.760;6.632;2023-12-22T11:58:45;9.10;99.90
28530;DHT22;15737;49.760;6.632;2023-12-22T12:01:23;9.10;99.90
28530;DHT22;15737;49.760;6.632;2023-12-22T12:03:51;9.10;99.90
28530;DHT22;15737;49.760;6.632;2023-12-22T12:08:48;9.10;99.90
28530;DHT22;15737;49.760;6.632;2023-12-22T12:11:14;9.10;99.90
28530;DHT22;15737;49.760;6.632;2023-12-22T12:13:42;9.10;99.90
28530;DHT22;15737;49.760;6.632;2023-12-22T12:16:13;9.20;99.90
28530;DHT22;15737;49.760;6.632;2023-12-22T12:18:39;9.20;99.90
28530;DHT22;15737;49.760;6.632;2023-12-22T12:21:09;9.30;99.90
28530;DHT22;15737;49.760;6.632;2023-12-22T12:23:35;9.40;99.90
28530;DHT22;15737;49.760;6.632;2023-12-22T12:26:01;9.40;99.90
28530;DHT22;15737;49.760;6.632;2023-12-22T12:28:32;9.50;99.90
28530;DHT22;15737;49.760;6.632;2023-12-22T12:30:58;9.50;99.90
28530;DHT22;15737;49.760;6.632;2023-12-22T12:33:28;9.60;99.90
28530;DHT22;15737;49.760;6.632;2023-12-22T12:35:58;9.60;99.90
28530;DHT22;15737;49.760;6.632;2023-12-22T12:38:54;9.60;99.90
28530;DHT22;15737;49.760;6.632;2023-12-22T12:41:31;9.60;99.90
28530;DHT22;15737;49.760;6.632;2023-12-22T12:43:58;9.50;99.90
28530;DHT22;15737;49.760;6.632;2023-12-22T12:46:35;9.40;99.90
28530;DHT22;15737;49.760;6.632;2023-12-22T12:49:08;9.30;99.90
28530;DHT22;15737;49.760;6.632;2023-12-22T12:51:43;9.20;99.90
28530;DHT22;15737;49.760;6.632;2023-12-22T12:54:10;9.10;99.90
28530;DHT22;15737;49.760;6.632;2023-12-22T12:56:45;9.10;99.90
28530;DHT22;15737;49.760;6.632;2023-12-22T12:59:13;9.10;99.90
28530;DHT22;15737;49.760;6.632;2023-12-22T13:01:40;9.10;99.90
28530;DHT22;15737;49.760;6.632;2023-12-22T13:04:05;9.10;99.90
28530;DHT22;15737;49.760;6.632;2023-12-22T13:06:32;9.10;99.90
28530;DHT22;15737;49.760;6.632;2023-12-22T13:08:57;9.10;99.90
28530;DHT22;15737;49.760;6.632;2023-12-22T13:11:25;9.10;99.90
28530;DHT22;15737;49.760;6.632;2023-12-22T13:13:51;9.10;99.90
28530;DHT22;15737;49.760;6.632;2023-12-22T13:16:21;9.10;99.90
28530;DHT22;15737;49.760;6.632;2023-12-22T13:18:48;9.00;99.90
28530;DHT22;15737;49.760;6.632;2023-12-22T13:21:14;9.00;99.90
28530;DHT22;15737;49.760;6.632;2023-12-22T13:23:40;9.00;99.90
28530;DHT22;15737;49.760;6.632;2023-12-22T13:26:06;9.00;99.90
28530;DHT22;15737;49.760;6.632;2023-12-22T13:28:31;8.90;99.90
28530;DHT22;15737;49.760;6.632;2023-12-22T13:30:57;9.00;99.90
28530;DHT22;15737;49.760;6.632;2023-12-22T13:33:22;9.00;99.90
28530;DHT22;15737;49.760;6.632;2023-12-22T13:35:56;9.00;99.90
28530;DHT22;15737;49.760;6.632;2023-12-22T13:38:23;9.00;99.90
28530;DHT22;15737;49.760;6.632;2023-12-22T13:40:48;9.00;99.90
28530;DHT22;15737;49.760;6.632;2023-12-22T13:43:14;9.00;99.90
28530;DHT22;15737;49.760;6.632;2023-12-22T13:45:40;9.00;99.90
28530;DHT22;15737;49.760;6.632;2023-12-22T13:48:06;9.00;99.90
28530;DHT22;15737;49.760;6.632;2023-12-22T13:50:32;9.00;99.90
28530;DHT22;15737;49.760;6.632;2023-12-22T13:53:08;9.10;99.90
28530;DHT22;15737;49.760;6.632;2023-12-22T13:55:34;9.10;99.90
28530;DHT22;15737;49.760;6.632;2023-12-22T13:58:02;9.10;99.90
28530;DHT22;15737;49.760;6.632;2023-12-22T14:00:29;9.10;99.90
28530;DHT22;15737;49.760;6.632;2023-12-22T14:02:56;9.10;99.90
28530;DHT22;15737;49.760;6.632;2023-12-22T14:05:22;9.10;99.90
28530;DHT22;15737;49.760;6.632;2023-12-22T14:07:48;9.20;99.90
28530;DHT22;15737;49.760;6.632;2023-12-22T14:10:14;9.20;99.90
28530;DHT22;15737;49.760;6.632;2023-12-22T14:12:41;9.20;99.90
28530;DHT22;15737;49.760;6.632;2023-12-22T14:15:07;9.20;99.90
28530;DHT22;15737;49.760;6.632;2023-12-22T14:17:33;9.20;99.90
28530;DHT22;15737;49.760;6.632;2023-12-22T14:19:58;9.30;99.90
28530;DHT22;15737;49.760;6.632;2023-12-22T14:22:24;9.20;99.90
28530;DHT22;15737;49.760;6.632;2023-12-22T14:24:50;9.20;99.90
28530;DHT22;15737;49.760;6.632;2023-12-22T14:27:15;9.20;99.90
28530;DHT22;15737;49.760;6.632;2023-12-22T14:29:44;9.20;99.90
28530;DHT22;15737;49.760;6.632;2023-12-22T14:32:09;9.10;99.90
28530;DHT22;15737;49.760;6.632;2023-12-22T14:34:36;9.10;99.90
28530;DHT22;15737;49.760;6.632;2023-12-22T14:37:02;9.10;99.90
28530;DHT22;15737;49.760;6.632;2023-12-22T14:39:27;9.10;99.90
28530;DHT22;15737;49.760;6.632;2023-12-22T14:41:53;9.10;99.90
28530;DHT22;15737;49.760;6.632;2023-12-22T14:44:19;9.10;99.90
28530;DHT22;15737;49.760;6.632;2023-12-22T14:46:44;9.10;99.90
28530;DHT22;15737;49.760;6.632;2023-12-22T14:49:11;9.20;99.90
28530;DHT22;15737;49.760;6.632;2023-12-22T14:51:40;9.30;99.90
28530;DHT22;15737;49.760;6.632;2023-12-22T14:54:06;9.30;99.90
28530;DHT22;15737;49.760;6.632;2023-12-22T14:56:32;9.30;99.90
28530;DHT22;15737;49.760;6.632;2023-12-22T14:58:58;9.40;99.90
28530;DHT22;15737;49.760;6.632;2023-12-22T15:01:24;9.50;99.90
28530;DHT22;15737;49.760;6.632;2023-12-22T15:03:49;9.50;99.90
28530;DHT22;15737;49.760;6.632;2023-12-22T15:06:15;9.50;99.90
28530;DHT22;15737;49.760;6.632;2023-12-22T15:08:41;9.50;99.90
28530;DHT22;15737;49.760;6.632;2023-12-22T15:11:07;9.50;99.90
28530;DHT22;15737;49.760;6.632;2023-12-22T15:13:34;9.50;99.90
28530;DHT22;15737;49.760;6.632;2023-12-22T15:16:07;9.50;99.90
28530;DHT22;15737;49.760;6.632;2023-12-22T15:18:32;9.30;99.90
28530;DHT22;15737;49.760;6.632;2023-12-22T15:20:58;9.30;99.90
28530;DHT22;15737;49.760;6.632;2023-12-22T15:23:24;9.20;99.90
28530;DHT22;15737;49.760;6.632;2023-12-22T15:25:49;9.20;99.90
28530;DHT22;15737;49.760;6.632;2023-12-22T15:28:15;9.20;99.90
28530;DHT22;15737;49.760;6.632;2023-12-22T15:30:41;9.20;99.90
28530;DHT22;15737;49.760;6.632;2023-12-22T15:33:06;9.10;99.90
28530;DHT22;15737;49.760;6.632;2023-12-22T15:35:32;9.10;99.90
28530;DHT22;15737;49.760;6.632;2023-12-22T15:37:57;9.00;99.90
28530;DHT22;15737;49.760;6.632;2023-12-22T15:40:23;9.00;99.90
28530;DHT22;15737;49.760;6.632;2023-12-22T15:42:48;9.00;99.90
28530;DHT22;15737;49.760;6.632;2023-12-22T15:45:14;8.90;99.90